Time;durP1;ratioP1;P1;durP2;ratioP2;P2;SDS_P1;SDS_P2;PMS_P1;PMS_P2;Temp;Humidity;BMP_temperature;BMP_pressure;BME280_temperature;BME280_humidity;BME280_pressure;Samples;Min_cycle;Max_cycle;Signal;HPM_P1;HPM_P2
2022/02/23 00:00:08;;;;;;;;;8.00;8.00;;;;;9.91;39.40;98662.88;6229180;27;99583;-68
2022/02/23 00:03:14;;;;;;;;;11.00;9.00;;;;;9.87;39.27;98668.94;6248330;27;97124;-68
2022/02/23 00:06:28;;;;;;;;;10.60;8.00;;;;;9.94;39.07;98661.59;6264790;27;97411;-68
2022/02/23 00:09:32;;;;;;;;;8.00;7.00;;;;;9.82;39.13;98652.63;6246524;27;96715;-68
2022/02/23 00:12:36;;;;;;;;;6.00;6.00;;;;;9.81;39.07;98634.81;6265846;27;96759;-67
2022/02/23 00:15:39;;;;;;;;;10.40;8.40;;;;;9.90;38.67;98641.56;6246625;27;96534;-67
2022/02/23 00:18:42;;;;;;;;;10.00;9.00;;;;;9.91;38.73;98641.34;6246800;27;98529;-67
2022/02/23 00:21:47;;;;;;;;;6.00;5.60;;;;;9.91;38.42;98633.28;6263820;27;97953;-67
2022/02/23 00:24:51;;;;;;;;;12.00;9.00;;;;;9.96;38.37;98632.59;6264884;27;96691;-67
2022/02/23 00:27:55;;;;;;;;;9.00;9.00;;;;;10.02;38.24;98627.13;6247568;27;98659;-67
2022/02/23 00:30:58;;;;;;;;;9.00;8.60;;;;;10.02;38.35;98620.13;6245933;27;97028;-67
2022/02/23 00:34:01;;;;;;;;;10.00;9.00;;;;;9.95;38.09;98612.09;6228726;27;99640;-68
2022/02/23 00:37:07;;;;;;;;;8.00;7.60;;;;;9.96;38.38;98611.06;6265992;27;97505;-67
2022/02/23 00:40:11;;;;;;;;;7.00;6.40;;;;;10.06;38.17;98605.97;6246065;27;96847;-68
2022/02/23 00:43:14;;;;;;;;;6.75;6.00;;;;;9.95;38.18;98596.75;6246265;27;97463;-67
2022/02/23 00:46:18;;;;;;;;;11.00;8.00;;;;;10.00;38.13;98588.00;6259158;27;97054;-67
2022/02/23 00:49:21;;;;;;;;;9.00;8.00;;;;;9.99;38.43;98589.03;6245795;27;98044;-67
2022/02/23 00:52:28;;;;;;;;;7.40;7.00;;;;;9.99;38.40;98578.28;6263885;27;96452;-67
2022/02/23 00:55:31;;;;;;;;;6.00;6.00;;;;;9.75;38.31;98560.34;6246337;27;97632;-68
2022/02/23 00:58:34;;;;;;;;;8.00;7.00;;;;;9.95;38.01;98572.53;6263956;27;97603;-66
2022/02/23 01:01:38;;;;;;;;;7.00;6.80;;;;;9.90;37.94;98561.59;6247113;27;96774;-68
2022/02/23 01:04:42;;;;;;;;;7.50;5.50;;;;;9.91;38.07;98557.88;6245146;27;96669;-68
2022/02/23 01:07:47;;;;;;;;;7.00;6.00;;;;;10.04;37.90;98556.06;6247757;27;97247;-68
2022/02/23 01:10:50;;;;;;;;;6.50;6.00;;;;;9.97;37.65;98561.50;6245394;27;97152;-67
2022/02/23 01:13:54;;;;;;;;;7.00;6.80;;;;;9.99;37.90;98556.72;6262949;27;96625;-69
2022/02/23 01:16:57;;;;;;;;;7.00;7.00;;;;;9.94;37.67;98568.19;6243875;27;98519;-67
2022/02/23 01:20:01;;;;;;;;;5.40;5.00;;;;;9.91;37.76;98575.91;6227566;27;97150;-67
2022/02/23 01:23:06;;;;;;;;;6.00;5.60;;;;;9.95;37.60;98553.69;6228849;27;99583;-66
2022/02/23 01:26:10;;;;;;;;;6.50;6.00;;;;;9.92;37.73;98550.63;6262942;27;96761;-68
2022/02/23 01:29:15;;;;;;;;;5.80;5.80;;;;;9.98;37.79;98547.84;6246291;27;97464;-66
2022/02/23 01:32:18;;;;;;;;;6.00;6.00;;;;;10.07;37.73;98556.41;6279356;27;96462;-66
2022/02/23 01:35:23;;;;;;;;;8.00;7.00;;;;;10.15;37.48;98541.84;6263084;27;97502;-68
2022/02/23 01:38:27;;;;;;;;;6.75;6.00;;;;;9.99;37.18;98510.94;6246959;27;97020;-67
2022/02/23 01:41:31;;;;;;;;;8.60;6.80;;;;;10.17;37.23;98532.50;6276658;27;96481;-67
2022/02/23 01:44:34;;;;;;;;;5.80;4.80;;;;;10.12;37.12;98524.25;6267147;27;98012;-68
2022/02/23 01:47:38;;;;;;;;;6.00;4.60;;;;;10.15;37.27;98518.41;6263399;27;97295;-66
2022/02/23 01:50:47;;;;;;;;;6.00;5.00;;;;;10.13;37.27;98515.13;6253344;27;97429;-67
2022/02/23 01:53:52;;;;;;;;;5.25;5.00;;;;;10.22;37.10;98521.03;6228188;27;96838;-67
2022/02/23 01:56:55;;;;;;;;;6.20;5.20;;;;;10.23;37.09;98507.34;6263605;27;96348;-67
2022/02/23 01:59:58;;;;;;;;;6.40;4.00;;;;;10.29;37.11;98514.53;6245931;27;99598;-67
2022/02/23 02:03:01;;;;;;;;;5.40;5.00;;;;;10.28;37.03;98504.78;6236628;28;100083;-67
2022/02/23 02:06:05;;;;;;;;;5.60;4.00;;;;;10.33;36.93;98501.41;6237805;27;97468;-67
2022/02/23 02:09:09;;;;;;;;;7.00;6.00;;;;;10.35;36.74;98502.84;6264235;27;96850;-67
2022/02/23 02:12:13;;;;;;;;;5.00;5.00;;;;;10.37;36.87;98508.78;6262836;27;96678;-67
2022/02/23 02:15:16;;;;;;;;;6.00;5.00;;;;;10.29;36.89;98506.44;6262414;27;96903;-68
2022/02/23 02:18:19;;;;;;;;;5.00;4.20;;;;;10.24;36.82;98505.47;6245197;27;96519;-67
2022/02/23 02:21:22;;;;;;;;;6.00;5.67;;;;;10.25;36.98;98502.56;6260908;27;97109;-68
2022/02/23 02:24:30;;;;;;;;;6.00;6.00;;;;;10.23;37.05;98493.88;6244049;27;99705;-67
2022/02/23 02:27:33;;;;;;;;;6.25;5.25;;;;;10.23;37.07;98493.03;6245863;27;96535;-67
2022/02/23 02:30:37;;;;;;;;;5.60;5.00;;;;;10.27;37.31;98478.06;6263363;27;97150;-69
2022/02/23 02:33:40;;;;;;;;;4.00;3.00;;;;;10.32;36.89;98480.88;6238631;28;97487;-67
2022/02/23 02:36:43;;;;;;;;;6.00;5.25;;;;;10.34;36.95;98463.47;6227999;27;99676;-67
2022/02/23 02:39:48;;;;;;;;;5.20;4.00;;;;;10.30;36.96;98459.59;6243341;27;97177;-67
2022/02/23 02:42:55;;;;;;;;;4.50;4.00;;;;;10.30;36.91;98461.47;6260321;27;97444;-68
2022/02/23 02:45:59;;;;;;;;;6.00;6.00;;;;;10.19;37.30;98463.06;6241152;27;99690;-69
2022/02/23 02:49:02;;;;;;;;;7.00;5.75;;;;;10.20;37.13;98466.56;6258964;27;96991;-67
2022/02/23 02:52:07;;;;;;;;;6.00;5.00;;;;;10.19;37.21;98464.94;6260634;27;97584;-66
2022/02/23 02:55:11;;;;;;;;;6.00;6.00;;;;;10.18;37.08;98464.09;6234508;27;98289;-68
2022/02/23 02:58:14;;;;;;;;;7.40;6.40;;;;;10.16;37.31;98455.44;6267639;27;97483;-68
2022/02/23 03:01:18;;;;;;;;;7.00;5.00;;;;;10.03;37.50;98455.59;6267894;27;97229;-67
2022/02/23 03:04:21;;;;;;;;;5.00;4.20;;;;;9.82;37.67;98421.91;6265535;27;97510;-67
2022/02/23 03:07:25;;;;;;;;;5.00;4.00;;;;;10.00;37.80;98466.81;6265886;27;97388;-67
2022/02/23 03:10:32;;;;;;;;;6.00;4.00;;;;;9.90;37.87;98470.06;6266247;27;97050;-67
2022/02/23 03:13:35;;;;;;;;;6.00;6.00;;;;;9.80;38.09;98468.94;6264887;27;96384;-67
2022/02/23 03:16:39;;;;;;;;;6.00;6.00;;;;;9.79;38.19;98472.69;6265578;27;97969;-68
2022/02/23 03:19:42;;;;;;;;;5.00;5.00;;;;;9.77;38.27;98472.94;6267039;27;96510;-67
2022/02/23 03:22:46;;;;;;;;;6.60;6.00;;;;;9.56;38.51;98438.41;6248993;27;100575;-66
2022/02/23 03:25:51;;;;;;;;;6.00;6.00;;;;;9.76;38.57;98468.59;6265443;27;96636;-67
2022/02/23 03:28:54;;;;;;;;;6.20;5.00;;;;;9.74;38.64;98467.16;6248439;27;97142;-66
2022/02/23 03:31:58;;;;;;;;;5.00;5.00;;;;;9.47;38.64;98429.00;6248854;27;98432;-66
2022/02/23 03:35:01;;;;;;;;;6.00;6.00;;;;;9.79;38.60;98454.66;6267018;27;96546;-68
2022/02/23 03:38:04;;;;;;;;;6.00;5.00;;;;;9.81;38.52;98452.59;6266264;27;97935;-67
2022/02/23 03:41:09;;;;;;;;;4.20;3.60;;;;;9.94;38.68;98460.47;6266703;27;97100;-67
2022/02/23 03:44:12;;;;;;;;;6.00;4.80;;;;;9.92;38.63;98449.09;6265134;27;97383;-66
2022/02/23 03:47:16;;;;;;;;;4.00;3.20;;;;;9.91;38.63;98441.28;6266111;27;96915;-67
2022/02/23 03:50:20;;;;;;;;;6.00;4.60;;;;;10.08;38.78;98449.50;6264745;27;96623;-65
2022/02/23 03:53:24;;;;;;;;;6.00;5.00;;;;;10.04;38.89;98445.63;6265326;27;97492;-67
2022/02/23 03:56:42;;;;;;;;;4.00;4.00;;;;;10.05;38.85;98452.66;6267248;27;96455;-65
2022/02/23 03:59:46;;;;;;;;;4.00;4.00;;;;;10.00;39.22;98456.88;6264167;27;98593;-67
2022/02/23 04:02:49;;;;;;;;;5.00;4.20;;;;;9.99;39.31;98457.91;6244015;27;97664;-67
2022/02/23 04:05:52;;;;;;;;;6.60;5.60;;;;;9.99;39.46;98449.00;6246833;27;98380;-65
2022/02/23 04:08:56;;;;;;;;;4.60;4.00;;;;;10.08;39.59;98462.97;6247109;27;96816;-65
2022/02/23 04:12:01;;;;;;;;;4.00;4.00;;;;;9.98;39.58;98442.81;6245397;27;98530;-68
2022/02/23 04:15:05;;;;;;;;;6.00;4.00;;;;;10.11;39.68;98471.44;6266891;27;97649;-65
2022/02/23 04:18:08;;;;;;;;;5.25;4.25;;;;;10.10;40.09;98461.72;6247142;27;98280;-67
2022/02/23 04:21:12;;;;;;;;;4.00;3.40;;;;;10.08;40.15;98471.06;6247498;27;96877;-66
2022/02/23 04:24:15;;;;;;;;;5.00;4.00;;;;;10.28;39.92;98472.44;6245735;27;96824;-66
2022/02/23 04:27:20;;;;;;;;;5.00;3.00;;;;;10.28;40.57;98480.53;6264830;27;96806;-67
2022/02/23 04:30:24;;;;;;;;;5.00;4.00;;;;;10.31;41.37;98492.75;6243373;27;98477;-67
2022/02/23 04:33:27;;;;;;;;;4.00;3.60;;;;;10.23;42.19;98476.88;6264479;27;98023;-67
2022/02/23 04:36:31;;;;;;;;;4.00;4.00;;;;;10.37;42.87;98503.41;6247040;27;97186;-68
2022/02/23 04:39:34;;;;;;;;;3.00;3.00;;;;;10.34;43.55;98497.66;6243593;27;98670;-67
2022/02/23 04:42:39;;;;;;;;;3.60;3.00;;;;;10.39;43.68;98500.50;6264006;27;96794;-67
2022/02/23 04:45:43;;;;;;;;;5.00;5.00;;;;;10.32;43.90;98510.53;6241676;27;97590;-66
2022/02/23 04:48:47;;;;;;;;;6.00;4.00;;;;;10.34;44.13;98509.25;6246117;27;97741;-67
2022/02/23 04:51:50;;;;;;;;;4.00;3.00;;;;;10.23;44.53;98510.03;6248552;27;96674;-66
2022/02/23 04:54:54;;;;;;;;;6.00;5.00;;;;;10.19;44.35;98516.94;6277674;27;96536;-68
2022/02/23 04:57:58;;;;;;;;;5.00;5.00;;;;;10.22;44.42;98511.06;6252412;27;96854;-67
2022/02/23 05:01:02;;;;;;;;;5.00;5.00;;;;;10.17;44.95;98518.19;6258803;27;97411;-67
2022/02/23 05:04:05;;;;;;;;;8.00;6.60;;;;;10.08;45.64;98522.22;6263627;27;97175;-67
2022/02/23 05:07:09;;;;;;;;;6.00;5.20;;;;;10.04;46.08;98518.34;6265765;27;96530;-67
2022/02/23 05:10:12;;;;;;;;;7.00;6.00;;;;;10.09;46.16;98527.41;6238146;27;97617;-67
2022/02/23 05:13:17;;;;;;;;;5.00;5.00;;;;;9.96;46.72;98525.72;6245830;27;96650;-68
2022/02/23 05:16:21;;;;;;;;;6.00;6.00;;;;;9.95;46.99;98525.91;6263783;27;96900;-68
2022/02/23 05:19:24;;;;;;;;;7.00;7.00;;;;;9.94;47.80;98538.56;6243752;27;97129;-67
2022/02/23 05:22:27;;;;;;;;;7.80;6.20;;;;;9.96;48.28;98536.47;6263784;27;97471;-68
2022/02/23 05:25:31;;;;;;;;;6.67;6.00;;;;;9.89;48.66;98533.03;6261906;27;97357;-69
2022/02/23 05:28:35;;;;;;;;;7.00;5.00;;;;;9.82;49.54;98536.88;6244541;27;96664;-67
2022/02/23 05:31:40;;;;;;;;;6.20;5.20;;;;;9.83;50.01;98551.94;6252332;27;97234;-67
2022/02/23 05:34:44;;;;;;;;;6.60;6.00;;;;;9.81;50.90;98548.69;6262195;27;96668;-67
2022/02/23 05:37:47;;;;;;;;;8.60;7.00;;;;;9.88;51.11;98546.72;6264395;27;97172;-68
2022/02/23 05:40:50;;;;;;;;;7.00;5.60;;;;;9.97;51.09;98548.03;6262932;27;96360;-67
2022/02/23 05:43:55;;;;;;;;;5.20;5.00;;;;;10.04;51.44;98558.75;6229908;27;98412;-66
2022/02/23 05:46:59;;;;;;;;;6.60;6.00;;;;;10.18;51.33;98571.84;6241893;27;97684;-68
2022/02/23 05:50:02;;;;;;;;;6.75;6.00;;;;;10.16;51.74;98563.19;6259112;27;96906;-67
2022/02/23 05:53:06;;;;;;;;;7.00;6.00;;;;;10.24;51.76;98564.75;6244345;27;98593;-67
2022/02/23 05:56:09;;;;;;;;;5.00;4.33;;;;;10.25;51.76;98578.00;6262905;27;97218;-68
2022/02/23 05:59:14;;;;;;;;;5.00;5.00;;;;;10.34;51.54;98575.81;6264895;27;96583;-67
2022/02/23 06:02:17;;;;;;;;;5.80;5.00;;;;;10.25;51.68;98569.91;6263705;27;97461;-65
2022/02/23 06:05:20;;;;;;;;;4.00;4.00;;;;;10.31;51.62;98579.75;6242938;27;99635;-68
2022/02/23 06:08:24;;;;;;;;;5.00;4.00;;;;;10.34;51.73;98582.00;6246790;27;97504;-67
2022/02/23 06:11:28;;;;;;;;;5.00;4.00;;;;;10.34;51.30;98587.41;6257082;27;97593;-68
2022/02/23 06:14:33;;;;;;;;;4.00;3.60;;;;;10.41;51.44;98603.47;6241573;27;96855;-68
2022/02/23 06:17:36;;;;;;;;;3.00;3.00;;;;;10.26;51.75;98600.38;6259797;27;97412;-68
2022/02/23 06:20:40;;;;;;;;;4.00;3.00;;;;;10.19;52.15;98594.22;6258222;27;97442;-66
2022/02/23 06:23:44;;;;;;;;;3.00;3.00;;;;;9.98;52.21;98584.72;6251407;27;98432;-68
2022/02/23 06:26:48;;;;;;;;;5.00;4.60;;;;;10.16;52.54;98632.41;6260765;27;98104;-67
2022/02/23 06:29:52;;;;;;;;;6.00;5.00;;;;;10.21;52.74;98633.38;6263955;27;97604;-67
2022/02/23 06:32:58;;;;;;;;;5.40;5.40;;;;;9.98;52.83;98619.72;6256291;27;97774;-68
2022/02/23 06:36:01;;;;;;;;;6.00;5.00;;;;;9.95;53.24;98642.53;6247377;27;97453;-69
2022/02/23 06:39:04;;;;;;;;;5.00;5.00;;;;;10.14;52.93;98648.75;6266792;27;97469;-66
2022/02/23 06:42:08;;;;;;;;;9.00;7.20;;;;;9.99;53.33;98645.59;6249785;27;96429;-65
2022/02/23 06:45:13;;;;;;;;;8.40;6.00;;;;;10.20;53.20;98665.94;6267338;27;97497;-66
2022/02/23 06:48:19;;;;;;;;;7.00;6.00;;;;;10.26;53.25;98668.53;6253775;27;96928;-69
2022/02/23 06:51:22;;;;;;;;;5.00;5.00;;;;;10.35;53.06;98671.75;6267069;27;97484;-70
2022/02/23 06:54:26;;;;;;;;;6.25;5.00;;;;;10.09;53.06;98620.84;6276805;27;98000;-67
2022/02/23 06:57:36;;;;;;;;;6.40;6.00;;;;;10.47;52.84;98686.09;6255911;27;99966;-68
2022/02/23 07:00:41;;;;;;;;;4.20;4.00;;;;;10.47;52.70;98694.19;6241812;27;97427;-68
2022/02/23 07:03:45;;;;;;;;;5.00;4.00;;;;;9.92;52.77;98623.31;6243220;28;98151;-67
2022/02/23 07:06:49;;;;;;;;;6.00;6.00;;;;;10.43;52.77;98684.91;6259494;27;98492;-69
2022/02/23 07:09:52;;;;;;;;;6.75;6.75;;;;;10.56;52.72;98708.19;6265252;27;96419;-69
2022/02/23 07:12:56;;;;;;;;;4.00;3.00;;;;;10.55;nan;98720.03;6266786;27;97129;-71
2022/02/23 07:16:01;;;;;;;;;6.00;5.00;;;;;10.62;52.64;98726.16;6231373;27;98540;-70
2022/02/23 07:19:05;;;;;;;;;5.40;5.40;;;;;10.60;52.77;98736.38;6249728;27;97750;-69
2022/02/23 07:22:11;;;;;;;;;5.00;4.60;;;;;10.75;52.28;98737.59;6267535;27;96335;-71
2022/02/23 07:25:14;;;;;;;;;6.00;5.00;;;;;10.79;51.88;98748.78;6266697;27;98187;-70
2022/02/23 07:28:17;;;;;;;;;5.60;5.00;;;;;10.73;51.60;98757.75;6265663;27;97161;-69
2022/02/23 07:31:43;;;;;;;;;5.00;5.00;;;;;10.90;51.34;98758.78;6265264;27;97500;-67
2022/02/23 07:34:48;;;;;;;;;4.00;4.00;;;;;10.82;51.39;98776.09;6247921;27;96920;-70
2022/02/23 07:37:54;;;;;;;;;6.80;5.80;;;;;10.91;51.28;98784.72;6260728;27;96562;-69
2022/02/23 07:40:58;;;;;;;;;7.00;6.00;;;;;10.95;51.13;98793.16;6247019;27;96550;-68
2022/02/23 07:44:21;;;;;;;;;6.00;6.00;;;;;11.08;50.68;98812.72;6270809;27;97761;-70
2022/02/23 07:47:26;;;;;;;;;5.00;5.00;;;;;11.10;50.73;98812.50;6266680;27;99885;-65
2022/02/23 07:50:31;;;;;;;;;5.60;5.00;;;;;11.26;50.50;98823.50;6265518;27;96844;-68
2022/02/23 07:53:34;;;;;;;;;7.00;6.00;;;;;11.35;50.36;98837.50;6287697;27;96771;-70
2022/02/23 07:56:38;;;;;;;;;7.40;6.60;;;;;11.55;49.97;98854.25;6265701;27;97347;-71
2022/02/23 07:59:41;;;;;;;;;4.25;4.25;;;;;11.52;50.36;98862.00;6249140;27;98413;-69
2022/02/23 08:02:45;;;;;;;;;4.00;4.00;;;;;11.52;49.46;98862.81;6280023;27;97070;-69
2022/02/23 08:05:49;;;;;;;;;4.00;3.40;;;;;11.54;48.57;98863.38;6271880;27;96540;-69
2022/02/23 08:08:54;;;;;;;;;3.50;3.50;;;;;11.43;48.90;98871.47;6273729;27;96484;-67
2022/02/23 08:11:57;;;;;;;;;2.20;2.20;;;;;11.33;48.42;98871.16;6292010;27;98119;-67
2022/02/23 08:19:30;;;;;;;;;2.00;2.00;;;;;11.25;48.53;98891.19;6233173;27;98148;-67
2022/02/23 08:21:53;;;;;;;;;2.00;2.00;;;;;10.74;48.61;98894.25;6244864;27;97203;-68
2022/02/23 08:24:58;;;;;;;;;2.00;1.00;;;;;10.47;48.77;98885.56;6246148;27;96638;-68
2022/02/23 08:28:01;;;;;;;;;2.00;2.00;;;;;10.20;48.38;98894.91;6264514;27;97123;-69
2022/02/23 08:31:06;;;;;;;;;1.60;1.00;;;;;10.13;48.49;98888.72;6265841;27;98022;-70
2022/02/23 08:34:10;;;;;;;;;2.00;1.00;;;;;10.23;48.88;98900.69;6228342;27;97270;-68
2022/02/23 08:37:15;;;;;;;;;2.00;2.00;;;;;10.30;48.69;98914.13;6265589;27;97523;-68
2022/02/23 08:40:19;;;;;;;;;2.00;2.00;;;;;10.66;48.51;98918.78;6266106;27;96459;-73
2022/02/23 08:43:22;;;;;;;;;3.00;2.00;;;;;11.81;47.16;98931.41;6267949;27;96731;-70
2022/02/23 08:46:26;;;;;;;;;3.00;3.00;;;;;11.91;46.22;98937.09;6265786;27;97015;-68
2022/02/23 08:49:33;;;;;;;;;4.00;3.00;;;;;12.21;45.50;98923.56;6247086;27;96327;-70
2022/02/23 08:52:37;;;;;;;;;3.60;2.00;;;;;15.00;40.00;98935.53;6246931;27;97603;-70
2022/02/23 08:55:40;;;;;;;;;3.00;2.00;;;;;17.04;36.68;98932.09;6278094;27;96815;-67
2022/02/23 08:58:43;;;;;;;;;3.67;3.00;;;;;18.78;33.50;98941.44;6254497;27;97262;-69
2022/02/23 09:01:46;;;;;;;;;4.00;3.60;;;;;19.18;31.92;98929.63;6278637;27;96915;-69
2022/02/23 09:04:51;;;;;;;;;2.60;2.40;;;;;20.19;30.80;98960.19;6253420;27;99584;-67
2022/02/23 09:07:54;;;;;;;;;3.40;3.00;;;;;21.77;27.62;98960.50;6281403;27;97291;-67
2022/02/23 09:10:58;;;;;;;;;3.40;3.00;;;;;22.72;26.10;98978.75;6250708;27;98316;-69
2022/02/23 09:14:01;;;;;;;;;3.00;2.40;;;;;21.37;27.05;98970.00;6288274;27;97055;-70
2022/02/23 09:17:05;;;;;;;;;3.20;3.00;;;;;19.98;28.51;98977.00;6270899;27;97989;-69
2022/02/23 09:20:12;;;;;;;;;3.00;3.00;;;;;18.72;29.74;98973.38;6263593;27;97033;-67
2022/02/23 09:23:16;;;;;;;;;3.00;2.60;;;;;17.85;30.98;98984.31;6263618;27;97554;-67
2022/02/23 09:26:19;;;;;;;;;2.00;2.00;;;;;17.24;31.93;98979.34;6262333;27;97436;-68
2022/02/23 09:29:24;;;;;;;;;2.00;2.00;;;;;16.76;32.51;98995.88;6244657;27;99483;-69
2022/02/23 09:32:32;;;;;;;;;2.80;2.00;;;;;16.52;32.83;98999.97;6245986;27;96903;-65
2022/02/23 09:35:36;;;;;;;;;3.00;2.00;;;;;16.43;32.35;98980.53;6263214;27;96905;-70
2022/02/23 09:38:43;;;;;;;;;2.75;2.00;;;;;16.75;32.12;98986.06;6244734;27;96654;-71
2022/02/23 09:41:47;;;;;;;;;4.00;2.00;;;;;16.49;32.05;98990.41;6262970;27;96505;-64
2022/02/23 09:44:51;;;;;;;;;3.20;2.00;;;;;16.32;32.99;98998.66;6262444;27;97014;-67
2022/02/23 09:48:14;;;;;;;;;3.00;2.00;;;;;15.59;35.14;99002.69;6263938;27;96649;-68
2022/02/23 09:51:18;;;;;;;;;3.00;2.60;;;;;15.25;36.53;99003.78;6244331;27;99503;-71
2022/02/23 09:54:22;;;;;;;;;3.00;3.00;;;;;14.76;37.21;98999.22;6235792;28;97246;-70
2022/02/23 09:57:25;;;;;;;;;2.00;2.00;;;;;14.41;37.33;98992.09;6235815;28;98427;-69
2022/02/23 10:00:30;;;;;;;;;3.20;2.00;;;;;15.44;36.25;99005.16;6235550;28;98575;-68
2022/02/23 10:03:34;;;;;;;;;3.00;3.00;;;;;15.61;35.93;99005.16;6241943;27;97586;-67
2022/02/23 10:06:41;;;;;;;;;4.00;3.00;;;;;15.78;36.10;99013.28;6262805;27;96580;-66
2022/02/23 10:09:47;;;;;;;;;4.00;3.00;;;;;15.43;36.38;99005.41;6263051;27;96960;-69
2022/02/23 10:12:54;;;;;;;;;2.80;2.80;;;;;14.99;37.29;99004.47;6262625;27;96661;-70
2022/02/23 10:15:58;;;;;;;;;4.00;4.00;;;;;14.64;38.67;99013.69;6262843;27;96540;-68
2022/02/23 10:19:23;;;;;;;;;5.00;4.00;;;;;14.17;39.90;99028.50;6262971;27;96268;-71
2022/02/23 10:22:28;;;;;;;;;4.40;4.00;;;;;13.83;41.44;99041.06;6262477;27;96968;-69
2022/02/23 10:25:35;;;;;;;;;3.00;3.00;;;;;13.42;41.37;99006.84;6263554;27;97667;-70
2022/02/23 10:28:38;;;;;;;;;2.00;2.00;;;;;13.16;42.72;99035.22;6242509;27;99679;-68
2022/02/23 10:31:50;;;;;;;;;2.00;2.00;;;;;13.22;42.14;99026.19;6248260;27;100480;-68
2022/02/23 10:34:55;;;;;;;;;2.00;2.00;;;;;13.65;41.21;99023.06;6263244;27;97468;-68
2022/02/23 10:38:00;;;;;;;;;4.00;2.00;;;;;14.76;40.75;99037.22;6273625;27;97488;-68
2022/02/23 10:41:05;;;;;;;;;5.00;4.00;;;;;14.94;38.05;99050.56;6236064;27;96661;-69
2022/02/23 10:44:10;;;;;;;;;3.00;2.00;;;;;14.57;38.73;99047.44;6244332;27;97884;-70
2022/02/23 10:47:23;;;;;;;;;4.00;3.00;;;;;14.34;38.48;99034.78;6262695;27;97454;-67
2022/02/23 10:50:28;;;;;;;;;4.00;4.00;;;;;14.53;38.29;99049.81;6260770;27;96569;-68
2022/02/23 10:53:34;;;;;;;;;3.20;2.80;;;;;15.77;37.00;99038.81;6264057;27;96671;-69
2022/02/23 10:56:38;;;;;;;;;4.00;3.25;;;;;17.24;34.11;99042.03;6237695;27;98553;-72
2022/02/23 10:59:42;;;;;;;;;4.00;3.00;;;;;18.68;32.36;99042.47;6253312;27;97907;-71
2022/02/23 11:02:45;;;;;;;;;4.00;4.00;;;;;19.91;30.22;99053.91;6249058;27;97668;-70
2022/02/23 11:05:50;;;;;;;;;5.00;4.00;;;;;19.76;29.54;99052.03;6260205;27;97031;-75
2022/02/23 11:08:56;;;;;;;;;3.00;2.00;;;;;19.49;30.36;99057.03;6226588;27;96869;-69
2022/02/23 11:12:01;;;;;;;;;2.00;2.00;;;;;19.10;30.63;99056.75;6265468;27;97106;-75
2022/02/23 11:15:06;;;;;;;;;5.00;4.50;;;;;18.91;30.17;99061.09;6240312;27;98387;-67
2022/02/23 11:18:11;;;;;;;;;4.00;4.00;;;;;19.41;29.51;99054.78;6245796;27;97217;-65
2022/02/23 11:21:16;;;;;;;;;3.00;2.00;;;;;19.40;29.09;99036.78;6240163;27;96874;-70
2022/02/23 11:24:21;;;;;;;;;3.00;2.00;;;;;19.19;29.15;99057.00;6246526;27;97085;-71
2022/02/23 11:27:26;;;;;;;;;5.00;4.00;;;;;18.82;29.49;99058.06;6263252;27;97437;-70
2022/02/23 11:30:31;;;;;;;;;5.00;5.00;;;;;18.49;30.18;99067.53;6246580;27;98111;-72
2022/02/23 11:33:54;;;;;;;;;5.00;4.00;;;;;18.19;30.74;99059.22;6276337;27;96519;-67
2022/02/23 11:36:57;;;;;;;;;5.00;5.00;;;;;17.68;30.36;99050.81;6276846;27;96718;-71
2022/02/23 11:40:03;;;;;;;;;5.00;3.40;;;;;17.33;30.99;99037.72;6265895;27;96854;-70
2022/02/23 11:43:24;;;;;;;;;4.00;3.60;;;;;16.89;31.91;99045.28;6239697;27;98812;-70
2022/02/23 11:46:28;;;;;;;;;5.60;4.00;;;;;16.49;32.44;99058.44;6274014;27;97586;-70
2022/02/23 11:49:33;;;;;;;;;3.50;2.50;;;;;15.99;34.34;99058.66;6267091;27;97462;-72
2022/02/23 11:52:45;;;;;;;;;5.00;3.00;;;;;16.29;35.47;99075.34;6265298;27;97985;-71
2022/02/23 11:56:10;;;;;;;;;3.00;2.00;;;;;17.37;34.52;99068.00;6266593;27;97955;-71
2022/02/23 11:59:46;;;;;;;;;2.40;2.40;;;;;18.22;31.96;99077.81;6264940;27;96384;-71
2022/02/23 12:03:01;;;;;;;;;2.40;2.00;;;;;19.20;30.03;99077.78;6275147;27;96963;-68
2022/02/23 12:06:09;;;;;;;;;3.40;2.00;;;;;19.95;29.02;99081.53;6254877;27;96459;-72
2022/02/23 12:09:12;;;;;;;;;3.40;2.80;;;;;19.49;28.96;99086.28;6256713;27;97577;-72
2022/02/23 12:12:32;;;;;;;;;3.00;3.00;;;;;18.98;29.58;99076.13;6261226;27;96946;-72
2022/02/23 12:15:39;;;;;;;;;4.00;3.00;;;;;18.44;29.14;99083.06;6247149;27;98325;-72
2022/02/23 12:18:46;;;;;;;;;2.75;2.75;;;;;17.50;30.20;99083.91;6251986;27;97963;-71
2022/02/23 12:21:57;;;;;;;;;3.40;3.00;;;;;16.73;31.49;99094.38;6247327;27;98910;-72
2022/02/23 12:25:00;;;;;;;;;2.00;2.00;;;;;16.08;33.51;99119.69;6263629;27;96702;-71
2022/02/23 12:28:06;;;;;;;;;2.00;2.00;;;;;14.94;37.43;99127.38;6260583;27;97603;-73
2022/02/23 12:31:12;;;;;;;;;1.80;1.00;;;;;14.15;37.64;99099.22;6245843;27;99758;-71
2022/02/23 12:34:17;;;;;;;;;2.00;2.00;;;;;14.06;37.69;99116.94;6259980;27;96534;-72
2022/02/23 12:37:41;;;;;;;;;2.00;2.00;;;;;15.11;36.82;99119.25;6260812;27;97032;-71
2022/02/23 12:40:45;;;;;;;;;2.00;2.00;;;;;15.97;35.80;99126.09;6265507;27;96597;-70
2022/02/23 12:44:08;;;;;;;;;2.00;2.00;;;;;16.56;35.13;99129.84;6265136;27;96871;-70
2022/02/23 12:47:15;;;;;;;;;1.50;1.50;;;;;16.85;34.34;99128.56;6238290;27;96795;-71
2022/02/23 12:50:25;;;;;;;;;2.00;1.60;;;;;16.57;34.59;99126.03;6262324;27;96877;-68
2022/02/23 12:53:31;;;;;;;;;2.00;2.00;;;;;16.35;35.09;99126.03;6244823;27;97118;-70
2022/02/23 12:56:37;;;;;;;;;3.00;2.00;;;;;16.78;34.68;99127.13;6243376;27;97895;-70
2022/02/23 12:59:42;;;;;;;;;3.00;3.00;;;;;17.25;33.90;99138.22;6262912;27;97518;-70
2022/02/23 13:02:45;;;;;;;;;5.60;5.00;;;;;17.18;33.25;99121.25;6259156;27;98360;-73
2022/02/23 13:05:51;;;;;;;;;3.00;3.00;;;;;17.69;32.09;99123.31;6261904;27;96735;-72
2022/02/23 13:08:54;;;;;;;;;3.00;3.00;;;;;17.84;31.48;99125.31;6256601;27;97433;-69
2022/02/23 13:11:59;;;;;;;;;3.40;3.00;;;;;18.06;30.57;99127.94;6258032;27;96393;-69
2022/02/23 13:15:05;;;;;;;;;3.50;3.50;;;;;18.06;30.76;99123.28;6262376;27;96476;-73
2022/02/23 13:18:10;;;;;;;;;3.00;3.00;;;;;18.24;30.29;99124.75;6264165;27;96916;-72
2022/02/23 13:21:15;;;;;;;;;4.20;4.20;;;;;18.41;30.07;99132.75;6226000;27;96911;-69
2022/02/23 13:24:34;;;;;;;;;4.00;3.00;;;;;18.35;29.58;99117.44;6262375;27;96600;-73
2022/02/23 13:27:39;;;;;;;;;3.00;3.00;;;;;18.30;29.24;99134.59;6252296;27;97778;-71
2022/02/23 13:30:44;;;;;;;;;4.25;3.00;;;;;18.47;29.65;99135.22;6235388;27;97198;-72
2022/02/23 13:33:47;;;;;;;;;3.00;2.60;;;;;18.28;29.15;99146.84;6255202;27;96394;-72
2022/02/23 13:36:52;;;;;;;;;4.00;3.20;;;;;17.59;29.35;99149.72;6234635;27;97513;-74
2022/02/23 13:39:58;;;;;;;;;5.00;4.00;;;;;17.14;30.07;99156.38;6252456;27;97178;-75
2022/02/23 13:43:05;;;;;;;;;3.00;2.60;;;;;16.94;29.73;99158.06;6243171;27;97197;-74
2022/02/23 13:46:10;;;;;;;;;3.00;2.00;;;;;16.44;30.13;99150.91;6261804;27;96574;-73
2022/02/23 13:49:13;;;;;;;;;4.00;3.00;;;;;16.27;30.76;99147.44;6230276;27;98581;-73
2022/02/23 13:52:16;;;;;;;;;3.00;3.00;;;;;16.15;30.73;99150.25;6254235;27;96595;-74
2022/02/23 13:55:22;;;;;;;;;5.20;3.20;;;;;16.33;30.30;99152.69;6242812;27;99010;-71
2022/02/23 13:58:31;;;;;;;;;3.00;3.00;;;;;16.46;30.74;99143.34;6239562;27;99785;-71
2022/02/23 14:01:35;;;;;;;;;5.00;4.00;;;;;16.35;30.70;99149.72;6240274;27;98084;-70
2022/02/23 14:04:45;;;;;;;;;4.00;3.00;;;;;16.22;30.99;99156.34;6261545;27;97079;-70
2022/02/23 14:07:57;;;;;;;;;3.00;3.00;;;;;15.65;31.03;99038.91;6230574;27;97517;-72
2022/02/23 14:11:14;;;;;;;;;3.25;3.00;;;;;16.27;31.56;99155.59;6255902;27;97234;-70
2022/02/23 14:14:18;;;;;;;;;3.60;3.00;;;;;16.29;31.51;99167.03;6248876;27;96759;-70
2022/02/23 14:17:26;;;;;;;;;4.20;3.00;;;;;16.28;31.20;99159.94;6229335;27;96654;-69
2022/02/23 14:20:29;;;;;;;;;4.00;3.00;;;;;16.31;31.34;99154.84;6241375;27;97468;-69
2022/02/23 14:23:33;;;;;;;;;3.00;2.00;;;;;15.82;30.56;99150.34;6225958;27;98455;-73
2022/02/23 14:26:36;;;;;;;;;5.00;4.00;;;;;15.52;31.04;99170.53;6255609;27;97483;-72
2022/02/23 14:29:45;;;;;;;;;2.40;2.40;;;;;15.39;31.53;99181.69;6241052;27;98163;-74
2022/02/23 14:32:50;;;;;;;;;4.00;4.00;;;;;14.92;32.44;99188.41;6228083;27;96971;-73
2022/02/23 14:35:53;;;;;;;;;4.00;3.00;;;;;14.71;34.77;99203.47;6263039;27;96675;-70